DMAUS EDDW-EDXW
Flight info
| Callsign | DMAUS |
|---|---|
| Flight time | 0h 25m |
| Altitude | 6000 |
| Route | WSN1M WSN DCT ABFAD VFR DCT |
| Aircraft | PA24/L-SDGRY/S |
Departure
| Time | 2026-05-04 19:55 |
|---|---|
| Airport | Bremen Airport (EDDW) |
Arrival
| Time | 2026-05-04 20:20 |
|---|---|
| Airport | Westerland Sylt Airport (EDXW) |
| Time | Latitude | Longitude | Altitude | Speed | Heading |
|---|---|---|---|---|---|
| 2026-05-04 19:33 | 53.05059 | 8.78095 | 16 ft | 0 kts | 89° |
| 2026-05-04 19:52 | 53.05058 | 8.78135 | 16 ft | 12 kts | 100° |
| 2026-05-04 19:52 | 53.04965 | 8.78266 | 16 ft | 23 kts | 166° |
| 2026-05-04 19:53 | 53.04851 | 8.78416 | 16 ft | 13 kts | 87° |
| 2026-05-04 19:53 | 53.04849 | 8.78617 | 16 ft | 16 kts | 104° |
| 2026-05-04 19:53 | 53.04828 | 8.78661 | 16 ft | 10 kts | 159° |
| 2026-05-04 19:53 | 53.04775 | 8.78666 | 16 ft | 1 kts | 184° |
| 2026-05-04 19:54 | 53.04769 | 8.78666 | 16 ft | 4 kts | 179° |
| 2026-05-04 19:54 | 53.04709 | 8.78660 | 16 ft | 11 kts | 189° |
| 2026-05-04 19:54 | 53.04686 | 8.78679 | 16 ft | 0 kts | 89° |
| 2026-05-04 19:54 | 53.04686 | 8.78682 | 16 ft | 8 kts | 81° |
| 2026-05-04 19:55 | 53.04691 | 8.79486 | 350 ft | 95 kts | 91° |
| 2026-05-04 19:55 | 53.04611 | 8.81119 | 1888 ft | 175 kts | 98° |
| 2026-05-04 19:55 | 53.04465 | 8.83333 | 3104 ft | 186 kts | 97° |
| 2026-05-04 19:55 | 53.04602 | 8.85579 | 3418 ft | 217 kts | 82° |
| 2026-05-04 19:56 | 53.04773 | 8.88076 | 3701 ft | 215 kts | 90° |
| 2026-05-04 19:56 | 53.04826 | 8.90534 | 3970 ft | 212 kts | 92° |
| 2026-05-04 19:56 | 53.04884 | 8.93030 | 4000 ft | 221 kts | 85° |
| 2026-05-04 19:56 | 53.05385 | 8.95478 | 3987 ft | 228 kts | 63° |
| 2026-05-04 19:57 | 53.06425 | 8.97575 | 3987 ft | 251 kts | 40° |
| 2026-05-04 19:57 | 53.07961 | 8.98966 | 3986 ft | 253 kts | 18° |
| 2026-05-04 19:57 | 53.09777 | 8.99320 | 5355 ft | 271 kts | 4° |
| 2026-05-04 19:57 | 53.11616 | 8.99636 | 7165 ft | 256 kts | 3° |
| 2026-05-04 19:58 | 53.13381 | 8.99408 | 8549 ft | 257 kts | 347° |
| 2026-05-04 19:58 | 53.15121 | 8.98528 | 9312 ft | 264 kts | 340° |
| 2026-05-04 19:58 | 53.16875 | 8.97535 | 9936 ft | 269 kts | 340° |
| 2026-05-04 19:58 | 53.18709 | 8.96492 | 10005 ft | 287 kts | 337° |
| 2026-05-04 19:59 | 53.20666 | 8.95253 | 10013 ft | 331 kts | 337° |
| 2026-05-04 19:59 | 53.23008 | 8.93884 | 10015 ft | 376 kts | 340° |
| 2026-05-04 19:59 | 53.25531 | 8.92570 | 10012 ft | 392 kts | 341° |
| 2026-05-04 19:59 | 53.28159 | 8.91172 | 10010 ft | 399 kts | 340° |
| 2026-05-04 20:00 | 53.30791 | 8.89675 | 10012 ft | 401 kts | 339° |
| 2026-05-04 20:00 | 53.33436 | 8.88166 | 10012 ft | 402 kts | 340° |
| 2026-05-04 20:00 | 53.36114 | 8.86811 | 10016 ft | 402 kts | 343° |
| 2026-05-04 20:00 | 53.38826 | 8.85641 | 10014 ft | 402 kts | 344° |
| 2026-05-04 20:01 | 53.41530 | 8.84469 | 10019 ft | 400 kts | 343° |
| 2026-05-04 20:01 | 53.44213 | 8.83259 | 10012 ft | 400 kts | 343° |
| 2026-05-04 20:01 | 53.46891 | 8.82043 | 10012 ft | 398 kts | 343° |
| 2026-05-04 20:01 | 53.49574 | 8.80850 | 10018 ft | 399 kts | 343° |
| 2026-05-04 20:02 | 53.52257 | 8.79663 | 10010 ft | 399 kts | 343° |
| 2026-05-04 20:02 | 53.54908 | 8.78509 | 10010 ft | 400 kts | 345° |
| 2026-05-04 20:02 | 53.57643 | 8.77626 | 10009 ft | 400 kts | 349° |
| 2026-05-04 20:02 | 53.60385 | 8.76936 | 10010 ft | 399 kts | 349° |
| 2026-05-04 20:03 | 53.63122 | 8.76115 | 10008 ft | 398 kts | 347° |
| 2026-05-04 20:03 | 53.65829 | 8.75174 | 10002 ft | 397 kts | 346° |
| 2026-05-04 20:03 | 53.68547 | 8.74266 | 9742 ft | 402 kts | 347° |
| 2026-05-04 20:03 | 53.71324 | 8.73415 | 9208 ft | 409 kts | 347° |
| 2026-05-04 20:04 | 53.74129 | 8.72550 | 9005 ft | 407 kts | 347° |
| 2026-05-04 20:04 | 53.76901 | 8.71658 | 9003 ft | 404 kts | 347° |
| 2026-05-04 20:04 | 53.79653 | 8.70769 | 9002 ft | 403 kts | 347° |
| 2026-05-04 20:04 | 53.82433 | 8.69879 | 9004 ft | 412 kts | 347° |
| 2026-05-04 20:05 | 53.85239 | 8.68967 | 9005 ft | 420 kts | 347° |
| 2026-05-04 20:05 | 53.88124 | 8.68039 | 9005 ft | 423 kts | 347° |
| 2026-05-04 20:05 | 53.91021 | 8.67121 | 9003 ft | 416 kts | 347° |
| 2026-05-04 20:05 | 53.93426 | 8.66714 | 8932 ft | 285 kts | 359° |
| 2026-05-04 20:06 | 53.95466 | 8.66917 | 7450 ft | 339 kts | 1° |
| 2026-05-04 20:06 | 53.97955 | 8.67320 | 4666 ft | 385 kts | 6° |
| 2026-05-04 20:06 | 54.00490 | 8.67772 | 4031 ft | 352 kts | 3° |
| 2026-05-04 20:06 | 54.02702 | 8.67912 | 4507 ft | 36 kts | 138° |
| 2026-05-04 20:07 | 54.03300 | 8.68477 | 4387 ft | 384 kts | 8° |
| 2026-05-04 20:07 | 54.05507 | 8.69700 | 5149 ft | 299 kts | 41° |
| 2026-05-04 20:07 | 54.06324 | 8.71253 | 4950 ft | 264 kts | 49° |
| 2026-05-04 20:08 | 54.07035 | 8.72752 | 4310 ft | 299 kts | 50° |
| 2026-05-04 20:08 | 54.08570 | 8.76099 | 3462 ft | 386 kts | 52° |
| 2026-05-04 20:08 | 54.10176 | 8.79960 | 2671 ft | 406 kts | 54° |
| 2026-05-04 20:09 | 54.11543 | 8.83298 | 2498 ft | 291 kts | 52° |
| 2026-05-04 20:09 | 54.12663 | 8.85731 | 1700 ft | 241 kts | 44° |
| 2026-05-04 20:09 | 54.13802 | 8.87517 | 1078 ft | 206 kts | 8° |
| 2026-05-04 20:09 | 54.15055 | 8.87236 | 909 ft | 167 kts | 26° |
| 2026-05-04 20:10 | 54.15568 | 8.89013 | 399 ft | 251 kts | 97° |
| 2026-05-04 20:10 | 54.14903 | 8.91862 | 2878 ft | 216 kts | 116° |
| 2026-05-04 20:10 | 54.13839 | 8.92141 | 5783 ft | 288 kts | 271° |
| 2026-05-04 20:10 | 54.15137 | 8.88909 | 5684 ft | 372 kts | 314° |
| 2026-05-04 20:11 | 54.17492 | 8.86792 | 4577 ft | 382 kts | 335° |
| 2026-05-04 20:11 | 54.20183 | 8.85332 | 2388 ft | 409 kts | 344° |
| 2026-05-04 20:11 | 54.22762 | 8.84580 | 1926 ft | 362 kts | 354° |
| 2026-05-04 20:11 | 54.25396 | 8.84507 | 408 ft | 394 kts | 359° |
| 2026-05-04 20:12 | 54.27530 | 8.83524 | 3587 ft | 284 kts | 313° |
| 2026-05-04 20:12 | 54.28702 | 8.80472 | 5360 ft | 345 kts | 296° |
| 2026-05-04 20:12 | 54.29708 | 8.76422 | 4921 ft | 376 kts | 289° |
| 2026-05-04 20:12 | 54.31420 | 8.74775 | 9207 ft | 296 kts | 349° |
| 2026-05-04 20:13 | 54.33297 | 8.73267 | 9895 ft | 259 kts | 285° |
| 2026-05-04 20:13 | 54.34667 | 8.69480 | 7080 ft | 429 kts | 316° |
| 2026-05-04 20:13 | 54.37409 | 8.67767 | 6908 ft | 427 kts | 350° |
| 2026-05-04 20:13 | 54.40359 | 8.67440 | 6952 ft | 422 kts | 350° |
| 2026-05-04 20:14 | 54.43150 | 8.66122 | 6672 ft | 421 kts | 339° |
| 2026-05-04 20:14 | 54.45898 | 8.64396 | 6432 ft | 416 kts | 334° |
| 2026-05-04 20:14 | 54.48522 | 8.62368 | 6165 ft | 413 kts | 339° |
| 2026-05-04 20:14 | 54.51187 | 8.60780 | 6161 ft | 405 kts | 341° |
| 2026-05-04 20:15 | 54.53903 | 8.59334 | 5814 ft | 410 kts | 339° |
| 2026-05-04 20:15 | 54.56324 | 8.57751 | 7619 ft | 129 kts | 219° |
| 2026-05-04 20:15 | 54.56236 | 8.54663 | 7402 ft | 369 kts | 297° |
| 2026-05-04 20:15 | 54.57967 | 8.51029 | 6772 ft | 408 kts | 315° |
| 2026-05-04 20:16 | 54.60247 | 8.48060 | 6280 ft | 415 kts | 326° |
| 2026-05-04 20:16 | 54.62696 | 8.45448 | 4830 ft | 422 kts | 326° |
| 2026-05-04 20:16 | 54.65125 | 8.42621 | 4063 ft | 414 kts | 324° |
| 2026-05-04 20:16 | 54.67498 | 8.39857 | 3429 ft | 409 kts | 326° |
| 2026-05-04 20:17 | 54.69962 | 8.37503 | 3061 ft | 402 kts | 332° |
| 2026-05-04 20:17 | 54.72473 | 8.35404 | 2561 ft | 399 kts | 334° |
| 2026-05-04 20:17 | 54.74916 | 8.33594 | 2163 ft | 367 kts | 339° |
| 2026-05-04 20:17 | 54.77331 | 8.32255 | 1744 ft | 366 kts | 344° |
| 2026-05-04 20:18 | 54.79795 | 8.31120 | 1023 ft | 368 kts | 345° |
| 2026-05-04 20:18 | 54.82266 | 8.30553 | 937 ft | 344 kts | 357° |
| 2026-05-04 20:18 | 54.84376 | 8.30673 | 1597 ft | 257 kts | 9° |
| 2026-05-04 20:18 | 54.85772 | 8.31421 | 1970 ft | 187 kts | 20° |
| 2026-05-04 20:19 | 54.86852 | 8.32425 | 1758 ft | 167 kts | 28° |
| 2026-05-04 20:19 | 54.87770 | 8.33521 | 1544 ft | 152 kts | 47° |
| 2026-05-04 20:19 | 54.88524 | 8.34684 | 1073 ft | 142 kts | 50° |
| 2026-05-04 20:19 | 54.89320 | 8.35541 | 520 ft | 131 kts | 7° |
| 2026-05-04 20:20 | 54.90169 | 8.35445 | 183 ft | 114 kts | 336° |
| 2026-05-04 20:20 | 54.90751 | 8.34752 | 52 ft | 85 kts | 329° |
| 2026-05-04 20:20 | 54.91080 | 8.34358 | 56 ft | 44 kts | 323° |
| 2026-05-04 20:20 | 54.91298 | 8.34038 | 53 ft | 36 kts | 282° |
| 2026-05-04 20:21 | 54.91203 | 8.33684 | 51 ft | 35 kts | 241° |
| 2026-05-04 20:21 | 54.91070 | 8.33290 | 51 ft | 40 kts | 240° |
| 2026-05-04 20:21 | 54.91178 | 8.32672 | 52 ft | 24 kts | 312° |
| 2026-05-04 20:22 | 54.91236 | 8.32548 | 52 ft | 10 kts | 259° |
| 2026-05-04 20:22 | 54.91234 | 8.32536 | 52 ft | 0 kts | 249° |